Time;durP1;ratioP1;P1;durP2;ratioP2;P2;SDS_P1;SDS_P2;PMS_P1;PMS_P2;Temp;Humidity;BMP_temperature;BMP_pressure;BME280_temperature;BME280_humidity;BME280_pressure;Samples;Min_cycle;Max_cycle;Signal;HPM_P1;HPM_P2
2021/06/17 00:00:31;;;;;;;4.60;3.00;;;22.30;86.10;;;;;;4930471;29;20524;-82
2021/06/17 00:02:59;;;;;;;7.05;3.40;;;22.40;86.30;;;;;;4938150;29;20139;-83
2021/06/17 00:05:30;;;;;;;5.25;3.15;;;22.40;86.20;;;;;;4933601;29;20162;-83
2021/06/17 00:07:59;;;;;;;5.82;2.97;;;22.30;86.40;;;;;;4927047;29;20095;-83
2021/06/17 00:10:31;;;;;;;5.38;3.10;;;22.30;87.00;;;;;;4929256;29;21280;-83
2021/06/17 00:13:01;;;;;;;5.95;2.90;;;22.20;87.50;;;;;;4930222;29;20127;-83
2021/06/17 00:15:30;;;;;;;3.63;2.47;;;22.10;88.30;;;;;;4934182;29;20458;-83
2021/06/17 00:17:58;;;;;;;4.55;2.75;;;22.10;89.00;;;;;;4926820;29;20125;-83
2021/06/17 00:20:27;;;;;;;5.13;2.97;;;22.00;89.20;;;;;;4927641;29;20059;-83
2021/06/17 00:22:55;;;;;;;6.43;3.38;;;22.00;89.70;;;;;;4926570;29;20112;-83
2021/06/17 00:25:22;;;;;;;4.30;2.92;;;21.90;90.00;;;;;;4928664;29;20142;-84
2021/06/17 00:27:49;;;;;;;5.22;2.95;;;21.90;90.20;;;;;;4929947;29;20083;-84
2021/06/17 00:30:19;;;;;;;6.05;3.35;;;21.80;90.30;;;;;;4928424;29;20131;-83
2021/06/17 00:32:46;;;;;;;5.95;3.28;;;21.70;90.50;;;;;;4927260;29;20138;-83
2021/06/17 00:35:14;;;;;;;5.55;3.13;;;21.70;90.90;;;;;;4930404;29;20139;-82
2021/06/17 00:37:43;;;;;;;5.60;3.00;;;21.50;91.30;;;;;;4929683;29;20083;-83
2021/06/17 00:40:14;;;;;;;5.05;2.67;;;21.40;92.10;;;;;;4928652;29;20056;-83
2021/06/17 00:42:45;;;;;;;6.00;2.88;;;21.30;92.50;;;;;;4926301;29;20127;-83
2021/06/17 00:45:15;;;;;;;5.28;2.97;;;21.30;94.10;;;;;;4926963;29;20048;-83
2021/06/17 00:47:43;;;;;;;4.97;3.00;;;21.30;93.60;;;;;;4929543;29;20126;-83
2021/06/17 00:50:12;;;;;;;5.72;3.10;;;21.30;93.30;;;;;;4928376;29;20139;-83
2021/06/17 00:52:39;;;;;;;4.35;2.92;;;21.30;94.00;;;;;;4929265;29;20044;-83
2021/06/17 00:55:09;;;;;;;6.00;3.03;;;21.20;93.80;;;;;;4928420;29;20485;-83
2021/06/17 00:57:38;;;;;;;4.72;3.03;;;21.20;94.10;;;;;;4925158;29;20233;-83
2021/06/17 01:00:07;;;;;;;5.35;3.10;;;21.20;94.10;;;;;;4924997;29;20143;-83
2021/06/17 01:02:34;;;;;;;5.50;3.50;;;21.20;94.20;;;;;;4921600;29;20075;-83
2021/06/17 01:05:01;;;;;;;5.82;3.35;;;20.90;92.30;;;;;;4922324;29;20131;-84
2021/06/17 01:07:36;;;;;;;6.20;3.53;;;20.90;92.60;;;;;;4932213;29;20082;-84
2021/06/17 01:10:13;;;;;;;6.25;3.30;;;20.80;92.80;;;;;;4924772;29;20048;-83
2021/06/17 01:12:52;;;;;;;5.00;2.97;;;20.60;92.90;;;;;;4924901;29;20132;-83
2021/06/17 01:15:22;;;;;;;5.38;2.80;;;20.50;93.30;;;;;;4926357;29;20124;-83
2021/06/17 01:17:56;;;;;;;5.53;3.20;;;20.60;93.50;;;;;;4922784;29;20134;-82
2021/06/17 01:20:28;;;;;;;4.93;3.30;;;20.60;93.50;;;;;;4925789;29;20119;-83
2021/06/17 01:23:10;;;;;;;5.72;3.33;;;20.50;93.50;;;;;;4924786;29;20143;-84
2021/06/17 01:26:05;;;;;;;5.75;3.42;;;20.50;93.50;;;;;;4924573;29;20056;-84
2021/06/17 01:28:36;;;;;;;7.00;3.25;;;20.50;93.60;;;;;;4929715;29;20055;-84
2021/06/17 01:31:07;;;;;;;5.65;3.38;;;20.40;93.60;;;;;;4937008;29;20067;-84
2021/06/17 01:33:38;;;;;;;4.55;3.13;;;20.30;93.70;;;;;;4935591;29;20067;-84
2021/06/17 01:36:11;;;;;;;5.93;3.60;;;20.20;94.00;;;;;;4937696;29;20048;-84
2021/06/17 01:38:39;;;;;;;5.65;3.63;;;20.10;94.10;;;;;;4934945;29;20458;-84
2021/06/17 01:41:08;;;;;;;5.28;3.50;;;20.10;94.20;;;;;;4934825;29;20344;-84
2021/06/17 01:43:38;;;;;;;6.63;4.00;;;20.10;94.30;;;;;;4937293;29;20075;-83
2021/06/17 01:46:05;;;;;;;5.75;3.47;;;20.00;94.20;;;;;;4939432;29;20082;-83
2021/06/17 01:48:35;;;;;;;6.03;3.33;;;20.00;94.20;;;;;;4936056;29;20040;-83
2021/06/17 01:51:02;;;;;;;6.25;3.60;;;20.00;94.30;;;;;;4941231;29;20070;-87
2021/06/17 01:53:30;;;;;;;5.65;3.42;;;20.00;94.40;;;;;;4936050;29;20044;-84
2021/06/17 01:56:00;;;;;;;5.82;3.47;;;20.00;94.40;;;;;;4916184;29;73325;-83
2021/06/17 01:58:28;;;;;;;6.32;3.72;;;20.00;94.30;;;;;;4933672;29;20043;-83
2021/06/17 02:00:59;;;;;;;6.25;3.40;;;20.00;94.20;;;;;;4931933;29;20052;-83
2021/06/17 02:03:27;;;;;;;7.03;3.65;;;20.00;94.30;;;;;;4927244;29;20056;-82
2021/06/17 02:05:56;;;;;;;5.47;3.17;;;20.00;94.20;;;;;;4926607;29;20079;-83
2021/06/17 02:08:24;;;;;;;4.63;3.03;;;20.00;94.60;;;;;;4928292;29;20083;-82
2021/06/17 02:10:52;;;;;;;4.93;2.80;;;20.00;94.40;;;;;;4928641;29;20083;-83
2021/06/17 02:13:21;;;;;;;7.90;3.00;;;20.10;94.50;;;;;;4928337;29;20087;-83
2021/06/17 02:15:50;;;;;;;5.90;3.38;;;20.10;94.50;;;;;;4925094;29;20130;-83
2021/06/17 02:18:26;;;;;;;5.03;2.92;;;20.20;94.50;;;;;;4928208;29;20135;-83
2021/06/17 02:20:55;;;;;;;5.65;3.33;;;20.20;94.40;;;;;;4928274;29;20059;-84
2021/06/17 02:23:23;;;;;;;5.38;3.47;;;20.20;94.30;;;;;;4926981;29;20079;-84
2021/06/17 02:25:54;;;;;;;6.38;3.40;;;20.30;94.00;;;;;;4924796;29;20131;-84
2021/06/17 02:28:27;;;;;;;6.85;3.92;;;20.20;93.90;;;;;;4926158;29;20131;-84
2021/06/17 02:30:57;;;;;;;5.88;3.60;;;20.00;93.90;;;;;;4927968;29;20059;-83
2021/06/17 02:33:26;;;;;;;4.75;3.20;;;19.90;94.00;;;;;;4935690;29;20063;-83
2021/06/17 02:35:55;;;;;;;4.95;2.80;;;19.90;94.30;;;;;;4934646;29;20399;-84
2021/06/17 02:38:28;;;;;;;5.00;3.60;;;19.80;94.40;;;;;;4934367;29;20091;-83
2021/06/17 02:41:02;;;;;;;5.93;3.60;;;19.80;94.60;;;;;;4936679;29;20106;-83
2021/06/17 02:43:34;;;;;;;5.15;3.45;;;19.70;94.90;;;;;;4933789;29;20115;-83
2021/06/17 02:46:02;;;;;;;4.90;3.28;;;19.70;94.50;;;;;;4929698;29;20051;-83
2021/06/17 02:48:31;;;;;;;6.25;3.80;;;19.70;94.50;;;;;;4928816;29;20040;-83
2021/06/17 02:50:58;;;;;;;5.93;3.53;;;19.70;94.60;;;;;;4941507;29;20084;-83
2021/06/17 02:53:26;;;;;;;4.90;3.22;;;19.60;94.60;;;;;;4934684;29;20079;-83
2021/06/17 02:55:53;;;;;;;5.28;3.50;;;19.50;94.70;;;;;;4934505;29;20052;-84
2021/06/17 02:58:44;;;;;;;5.95;3.63;;;19.40;94.80;;;;;;4935526;29;20048;-84
2021/06/17 03:01:18;;;;;;;7.43;3.50;;;19.40;94.90;;;;;;4931747;29;20098;-84
2021/06/17 03:03:51;;;;;;;4.78;3.17;;;19.30;94.90;;;;;;4935549;29;20082;-84
2021/06/17 03:06:26;;;;;;;4.65;2.80;;;19.30;95.00;;;;;;4933810;29;20087;-82
2021/06/17 03:08:56;;;;;;;;;;;19.30;95.20;;;;;;4922695;29;20501;-83
2021/06/17 03:11:24;;;;;;;5.05;3.15;;;19.30;95.40;;;;;;4926175;29;19930;-82
2021/06/17 03:13:56;;;;;;;5.20;3.40;;;19.40;95.40;;;;;;4934810;29;20058;-83
2021/06/17 03:16:29;;;;;;;5.22;3.70;;;19.50;95.30;;;;;;4936827;29;20046;-82
2021/06/17 03:19:00;;;;;;;6.70;3.83;;;19.50;95.00;;;;;;4943891;29;20094;-83
2021/06/17 03:21:31;;;;;;;6.05;3.20;;;19.50;95.00;;;;;;4941039;29;20048;-83
2021/06/17 03:23:58;;;;;;;6.05;2.75;;;19.30;95.10;;;;;;4933735;29;20076;-83
2021/06/17 03:26:28;;;;;;;5.38;3.00;;;19.30;95.30;;;;;;4934077;29;20056;-82
2021/06/17 03:28:57;;;;;;;5.45;3.30;;;19.20;95.60;;;;;;4934671;29;20107;-83
2021/06/17 03:31:27;;;;;;;5.38;3.42;;;19.30;95.40;;;;;;4928377;29;20460;-83
2021/06/17 03:33:57;;;;;;;5.65;4.05;;;19.20;95.30;;;;;;4922128;29;20107;-83
2021/06/17 03:36:26;;;;;;;6.85;3.80;;;19.10;95.00;;;;;;4923987;29;20127;-83
2021/06/17 03:38:54;;;;;;;5.07;3.70;;;19.00;95.40;;;;;;4924972;29;20075;-82
2021/06/17 03:41:23;;;;;;;4.60;3.30;;;18.80;95.80;;;;;;4925620;29;20482;-83
2021/06/17 03:43:52;;;;;;;4.13;2.85;;;18.70;96.50;;;;;;4925097;29;20131;-83
2021/06/17 03:46:20;;;;;;;6.90;3.35;;;18.70;96.50;;;;;;4926770;29;20055;-83
2021/06/17 03:48:49;;;;;;;5.50;3.35;;;18.70;96.80;;;;;;4923501;29;20135;-83
2021/06/17 03:51:17;;;;;;;5.85;3.58;;;18.80;96.60;;;;;;4931309;29;20054;-84
2021/06/17 03:53:46;;;;;;;6.03;3.20;;;18.80;96.60;;;;;;4924957;29;20176;-83
2021/06/17 03:56:14;;;;;;;5.72;3.63;;;18.90;96.50;;;;;;4925900;29;20060;-84
2021/06/17 03:58:43;;;;;;;5.82;3.58;;;18.90;96.50;;;;;;4928470;29;20462;-83
2021/06/17 04:01:11;;;;;;;4.68;2.92;;;19.00;96.50;;;;;;4927604;29;20058;-83
2021/06/17 04:03:39;;;;;;;4.40;2.55;;;19.10;96.50;;;;;;4927187;29;20498;-83
2021/06/17 04:06:11;;;;;;;5.05;3.08;;;19.10;96.50;;;;;;4926948;29;20048;-83
2021/06/17 04:08:45;;;;;;;6.13;3.42;;;19.30;96.50;;;;;;4933471;29;20086;-83
2021/06/17 04:11:13;;;;;;;5.22;3.35;;;19.40;96.20;;;;;;4927988;29;20127;-86
2021/06/17 04:13:43;;;;;;;6.57;3.50;;;19.40;96.00;;;;;;4930226;29;20090;-84
2021/06/17 04:16:14;;;;;;;6.90;3.60;;;19.50;95.70;;;;;;4929239;29;20458;-85
2021/06/17 04:18:42;;;;;;;6.53;2.97;;;19.50;95.60;;;;;;4926966;29;20549;-85
2021/06/17 04:21:11;;;;;;;6.22;3.33;;;19.50;95.70;;;;;;4933081;29;20044;-83
2021/06/17 04:23:42;;;;;;;7.60;4.13;;;19.50;95.80;;;;;;4926832;29;20056;-84
2021/06/17 04:26:10;;;;;;;5.35;3.42;;;19.60;95.60;;;;;;4926941;29;20083;-81
2021/06/17 04:28:38;;;;;;;5.78;3.80;;;19.50;95.40;;;;;;4926950;29;20056;-84
2021/06/17 04:31:05;;;;;;;5.72;3.47;;;19.40;95.50;;;;;;4922487;29;20476;-84
2021/06/17 04:33:33;;;;;;;4.93;3.58;;;19.20;95.70;;;;;;4919112;29;20565;-84
2021/06/17 04:36:03;;;;;;;6.93;4.10;;;19.20;95.90;;;;;;4919346;29;20079;-85
2021/06/17 04:38:31;;;;;;;5.93;3.40;;;19.20;96.20;;;;;;4919156;29;20418;-84
2021/06/17 04:41:00;;;;;;;6.30;3.60;;;19.20;96.00;;;;;;4919272;29;20076;-83
2021/06/17 04:43:28;;;;;;;6.38;3.30;;;19.20;96.10;;;;;;4919070;29;20135;-83
2021/06/17 04:45:56;;;;;;;4.60;3.03;;;19.20;96.00;;;;;;4918948;29;20107;-83
2021/06/17 04:48:24;;;;;;;4.50;2.95;;;19.30;96.00;;;;;;4918974;29;20044;-83
2021/06/17 04:50:52;;;;;;;4.90;3.13;;;19.30;96.10;;;;;;4918904;29;20090;-84
2021/06/17 04:53:20;;;;;;;6.30;3.03;;;19.50;96.20;;;;;;4918780;29;20127;-84
2021/06/17 04:55:51;;;;;;;6.15;3.30;;;19.60;96.00;;;;;;4918686;29;20143;-83
2021/06/17 04:58:22;;;;;;;6.18;3.40;;;19.60;95.70;;;;;;4918994;29;20135;-83
2021/06/17 05:00:49;;;;;;;5.65;3.33;;;19.80;95.60;;;;;;4919049;29;20138;-83
2021/06/17 05:03:17;;;;;;;5.53;3.42;;;19.80;95.40;;;;;;4918742;29;20079;-84
2021/06/17 05:05:46;;;;;;;4.57;3.03;;;19.90;95.30;;;;;;4918419;29;20131;-83
2021/06/17 05:10:59;;;;;;;;;;;20.00;95.20;;;;;;4918921;29;20134;-83
2021/06/17 05:13:30;;;;;;;4.45;2.95;;;20.10;95.40;;;;;;4918481;29;19927;-83
2021/06/17 05:15:59;;;;;;;5.80;3.53;;;20.20;95.60;;;;;;4918499;29;20091;-84
2021/06/17 05:18:27;;;;;;;6.20;3.10;;;20.30;95.70;;;;;;4918413;29;20052;-84
2021/06/17 05:20:56;;;;;;;7.45;3.65;;;20.40;95.40;;;;;;4921287;29;20063;-84
2021/06/17 05:23:24;;;;;;;6.05;3.20;;;20.50;95.30;;;;;;4920770;29;20135;-84
2021/06/17 05:25:55;;;;;;;5.47;3.45;;;20.60;95.10;;;;;;4919275;29;20577;-84
2021/06/17 05:28:25;;;;;;;6.50;3.80;;;20.60;94.90;;;;;;4917986;29;20058;-84
2021/06/17 05:30:55;;;;;;;7.18;3.58;;;20.60;94.80;;;;;;4918179;29;20067;-84
2021/06/17 05:33:22;;;;;;;7.40;3.38;;;20.60;94.70;;;;;;4917846;29;20083;-84
2021/06/17 05:35:50;;;;;;;5.93;3.40;;;20.70;94.90;;;;;;4918577;29;20076;-84
2021/06/17 05:38:18;;;;;;;5.45;3.30;;;20.70;94.50;;;;;;4918312;29;20148;-83
2021/06/17 05:40:45;;;;;;;5.93;3.22;;;20.70;94.40;;;;;;4917817;29;20087;-84
2021/06/17 05:43:12;;;;;;;5.45;3.45;;;20.70;94.40;;;;;;4917782;29;20565;-84
2021/06/17 05:45:40;;;;;;;6.60;3.55;;;20.80;94.50;;;;;;4917875;29;20087;-83
2021/06/17 05:48:09;;;;;;;4.32;2.92;;;20.80;94.50;;;;;;4928759;29;20098;-84
2021/06/17 05:50:36;;;;;;;5.45;3.63;;;20.80;94.50;;;;;;4923155;29;20056;-84
2021/06/17 05:53:04;;;;;;;6.50;3.17;;;20.90;94.50;;;;;;4924099;29;20052;-84
2021/06/17 05:55:32;;;;;;;5.10;3.17;;;20.90;94.60;;;;;;4923958;29;20048;-84
2021/06/17 05:57:59;;;;;;;5.05;3.13;;;20.90;94.60;;;;;;4925349;29;20147;-84
2021/06/17 06:00:26;;;;;;;4.65;2.92;;;21.00;94.80;;;;;;4926809;29;20079;-84
2021/06/17 06:02:53;;;;;;;5.70;3.20;;;21.00;94.70;;;;;;4918019;29;20127;-83
2021/06/17 06:05:22;;;;;;;5.43;2.90;;;21.10;94.60;;;;;;4917665;29;20134;-84
2021/06/17 06:07:58;;;;;;;4.47;2.78;;;21.20;94.30;;;;;;4918406;29;20066;-84
2021/06/17 06:10:25;;;;;;;5.63;3.00;;;21.30;93.90;;;;;;4918398;29;20083;-84
2021/06/17 06:12:52;;;;;;;3.65;2.40;;;21.40;93.80;;;;;;4919167;29;20102;-84
2021/06/17 06:15:19;;;;;;;4.15;2.75;;;21.40;93.80;;;;;;4918339;29;20135;-84
2021/06/17 06:17:46;;;;;;;5.57;3.10;;;21.50;93.90;;;;;;4917912;29;20075;-84
2021/06/17 06:20:14;;;;;;;5.15;3.10;;;21.60;94.10;;;;;;4918458;29;20079;-84
2021/06/17 06:22:43;;;;;;;5.25;3.05;;;21.70;94.10;;;;;;4918039;29;20048;-84
2021/06/17 06:25:12;;;;;;;5.20;3.40;;;21.80;94.10;;;;;;4917508;29;20136;-84
2021/06/17 06:27:41;;;;;;;4.85;3.20;;;21.90;94.00;;;;;;4916994;29;20135;-84
2021/06/17 06:30:10;;;;;;;5.45;3.00;;;22.00;93.90;;;;;;4917404;29;20048;-84
2021/06/17 06:32:37;;;;;;;5.78;3.03;;;22.10;93.80;;;;;;4917502;29;20144;-84
2021/06/17 06:35:07;;;;;;;5.93;3.03;;;22.10;93.60;;;;;;4917332;29;20131;-84
2021/06/17 06:37:34;;;;;;;5.50;3.10;;;22.20;93.50;;;;;;4917066;29;20055;-84
2021/06/17 06:40:03;;;;;;;5.32;2.95;;;22.20;93.30;;;;;;4916803;29;20055;-84
2021/06/17 06:42:30;;;;;;;5.15;3.13;;;22.30;93.30;;;;;;4917014;29;20154;-84
2021/06/17 06:44:57;;;;;;;5.80;3.00;;;22.30;93.10;;;;;;4916923;29;20163;-84
2021/06/17 06:47:24;;;;;;;4.65;2.83;;;22.40;93.10;;;;;;4916717;29;20545;-84
2021/06/17 06:49:51;;;;;;;5.50;2.80;;;22.40;93.10;;;;;;4916937;29;20075;-84
2021/06/17 06:52:18;;;;;;;5.63;3.10;;;22.50;93.10;;;;;;4916670;29;20095;-84
2021/06/17 06:54:45;;;;;;;4.97;2.72;;;22.50;93.00;;;;;;4916526;29;20491;-83
2021/06/17 06:57:14;;;;;;;5.93;2.80;;;22.60;92.90;;;;;;4916968;29;20143;-84
2021/06/17 06:59:41;;;;;;;6.13;3.22;;;22.60;92.70;;;;;;4916826;29;20050;-84
2021/06/17 07:02:08;;;;;;;7.43;2.90;;;22.70;92.70;;;;;;4916785;29;20131;-85
2021/06/17 07:04:35;;;;;;;4.38;2.65;;;22.70;92.80;;;;;;4916508;29;20091;-85
2021/06/17 07:07:02;;;;;;;5.57;3.17;;;22.80;92.90;;;;;;4916544;29;20136;-84
2021/06/17 07:09:29;;;;;;;5.03;3.17;;;22.90;92.90;;;;;;4916369;29;20451;-85
2021/06/17 07:11:56;;;;;;;4.20;2.63;;;22.90;92.90;;;;;;4916612;29;20135;-84
2021/06/17 07:14:25;;;;;;;4.93;3.25;;;23.00;92.80;;;;;;4916598;29;20486;-84
2021/06/17 07:16:52;;;;;;;6.03;2.83;;;23.10;92.50;;;;;;4920255;29;20132;-85
2021/06/17 07:19:19;;;;;;;4.60;2.97;;;23.10;92.40;;;;;;4920311;29;20123;-84
2021/06/17 07:21:46;;;;;;;4.75;2.60;;;23.20;92.40;;;;;;4920153;29;20052;-84
2021/06/17 07:24:13;;;;;;;4.45;2.63;;;23.30;92.30;;;;;;4920216;29;20131;-84
2021/06/17 07:26:40;;;;;;;4.82;2.30;;;23.30;92.30;;;;;;4919982;29;20557;-84
2021/06/17 07:29:07;;;;;;;5.22;2.60;;;23.40;92.00;;;;;;4920420;29;20048;-84
2021/06/17 07:31:37;;;;;;;4.90;2.40;;;23.50;91.50;;;;;;4922466;29;20111;-84
2021/06/17 07:34:08;;;;;;;4.57;2.40;;;23.50;91.20;;;;;;4924138;29;20414;-84
2021/06/17 07:36:36;;;;;;;4.40;2.70;;;23.60;90.80;;;;;;4920024;29;20130;-85
2021/06/17 07:39:03;;;;;;;4.18;2.50;;;23.70;90.30;;;;;;4919777;29;20503;-84
2021/06/17 07:41:31;;;;;;;4.30;2.42;;;23.80;90.10;;;;;;4919893;29;20072;-84
2021/06/17 07:43:58;;;;;;;4.40;2.40;;;23.90;89.80;;;;;;4919713;29;20044;-84
2021/06/17 07:46:26;;;;;;;4.72;2.25;;;24.00;89.50;;;;;;4919658;29;20093;-85
2021/06/17 07:48:56;;;;;;;3.63;2.15;;;24.00;89.20;;;;;;4919475;29;20135;-84
2021/06/17 07:51:23;;;;;;;4.05;2.42;;;24.10;89.40;;;;;;4919890;29;20044;-84
2021/06/17 07:53:50;;;;;;;4.28;2.30;;;24.20;88.50;;;;;;4919744;29;20131;-85
2021/06/17 07:56:17;;;;;;;4.65;2.72;;;24.30;88.20;;;;;;4919392;29;20048;-84
2021/06/17 07:58:46;;;;;;;6.90;3.00;;;24.30;87.40;;;;;;4919647;29;20135;-85
2021/06/17 08:01:13;;;;;;;4.45;2.28;;;24.40;87.00;;;;;;4919522;29;20059;-85
2021/06/17 08:03:40;;;;;;;3.35;2.00;;;24.50;87.20;;;;;;4919422;29;20135;-84
2021/06/17 08:06:09;;;;;;;5.65;2.40;;;24.60;88.00;;;;;;4919664;29;20131;-84
2021/06/17 08:08:36;;;;;;;4.68;2.42;;;24.60;87.30;;;;;;4919303;29;20139;-84
2021/06/17 08:11:03;;;;;;;5.75;2.95;;;24.70;87.30;;;;;;4919246;29;20080;-84
2021/06/17 08:13:30;;;;;;;4.60;2.95;;;24.80;87.10;;;;;;4919270;29;20059;-85
2021/06/17 08:15:57;;;;;;;4.45;2.30;;;24.90;87.30;;;;;;4919193;29;20139;-85
2021/06/17 08:18:24;;;;;;;4.72;2.40;;;25.00;86.50;;;;;;4919443;29;20287;-84
2021/06/17 08:20:54;;;;;;;3.80;2.40;;;25.00;86.40;;;;;;4919223;29;20048;-85
2021/06/17 08:23:22;;;;;;;3.10;1.80;;;25.10;86.40;;;;;;4919252;29;20115;-85
2021/06/17 08:25:49;;;;;;;4.28;2.50;;;25.20;86.50;;;;;;4918705;29;20524;-85
2021/06/17 08:28:16;;;;;;;4.82;2.10;;;25.30;86.50;;;;;;4918271;29;20135;-84
2021/06/17 08:30:44;;;;;;;4.38;2.22;;;25.30;86.10;;;;;;4918950;29;20084;-85
2021/06/17 08:33:13;;;;;;;3.30;2.03;;;25.40;85.50;;;;;;4918901;29;20558;-84
2021/06/17 08:35:40;;;;;;;3.80;2.30;;;25.50;85.10;;;;;;4918875;29;20146;-84
2021/06/17 08:38:07;;;;;;;4.70;2.33;;;25.60;84.60;;;;;;4918732;29;20048;-85
2021/06/17 08:40:36;;;;;;;5.30;2.53;;;25.60;84.20;;;;;;4918814;29;20135;-85
2021/06/17 08:43:04;;;;;;;4.20;2.42;;;25.70;83.90;;;;;;4920122;29;20052;-85
2021/06/17 08:45:32;;;;;;;4.00;2.53;;;25.80;83.60;;;;;;4920648;29;20070;-85
2021/06/17 08:47:59;;;;;;;3.95;2.30;;;25.80;83.20;;;;;;4921984;29;20075;-85
2021/06/17 08:50:26;;;;;;;3.75;2.30;;;25.90;83.10;;;;;;4919050;29;20133;-85
2021/06/17 08:52:53;;;;;;;4.38;2.35;;;25.90;83.00;;;;;;4918937;29;20083;-85
2021/06/17 08:55:23;;;;;;;3.97;2.20;;;26.00;82.90;;;;;;4918497;29;20076;-85
2021/06/17 08:57:54;;;;;;;5.70;2.30;;;26.10;82.60;;;;;;4918772;29;20130;-85
2021/06/17 09:00:37;;;;;;;3.97;2.17;;;26.20;82.60;;;;;;4918556;29;20136;-85
2021/06/17 09:03:08;;;;;;;4.63;2.70;;;26.20;82.50;;;;;;4918414;29;20438;-85
2021/06/17 09:05:38;;;;;;;5.93;2.80;;;26.30;82.30;;;;;;4918418;29;20075;-85
2021/06/17 09:08:07;;;;;;;3.95;2.22;;;26.40;82.90;;;;;;4918220;29;20171;-85
2021/06/17 09:10:34;;;;;;;3.40;2.20;;;26.40;83.10;;;;;;4918458;29;20048;-85
2021/06/17 09:13:05;;;;;;;3.83;2.17;;;26.50;83.00;;;;;;4918595;29;20048;-86
2021/06/17 09:15:38;;;;;;;4.40;2.47;;;26.60;82.80;;;;;;4918513;29;20455;-85
2021/06/17 09:18:22;;;;;;;4.55;2.70;;;26.70;82.60;;;;;;4918745;29;20048;-85
2021/06/17 09:20:54;;;;;;;3.42;2.20;;;26.70;81.80;;;;;;4919400;29;20060;-86
2021/06/17 09:23:25;;;;;;;6.10;2.70;;;26.80;81.30;;;;;;4918647;29;20075;-85
2021/06/17 09:25:55;;;;;;;7.05;3.20;;;26.90;81.00;;;;;;4918489;29;20131;-86
2021/06/17 09:28:23;;;;;;;6.88;2.75;;;26.90;81.40;;;;;;4919022;29;20138;-86
2021/06/17 09:30:50;;;;;;;6.35;2.70;;;27.00;80.90;;;;;;4925382;29;20477;-86
2021/06/17 09:33:18;;;;;;;4.32;2.65;;;27.10;81.00;;;;;;4926535;29;20082;-85
2021/06/17 09:35:51;;;;;;;5.43;2.90;;;27.20;80.20;;;;;;4926667;29;20072;-85
2021/06/17 09:38:18;;;;;;;6.15;3.60;;;27.20;79.60;;;;;;4927890;29;20131;-85
2021/06/17 09:40:49;;;;;;;6.97;3.10;;;27.30;79.20;;;;;;4929899;29;20055;-86
2021/06/17 09:43:20;;;;;;;5.03;2.92;;;27.50;78.60;;;;;;4927979;29;20084;-84
2021/06/17 09:45:59;;;;;;;5.20;2.80;;;27.60;78.20;;;;;;4926918;29;20059;-85
2021/06/17 09:48:37;;;;;;;4.65;2.53;;;27.80;78.70;;;;;;4923745;29;20533;-85
2021/06/17 09:51:33;;;;;;;4.95;2.70;;;27.80;77.40;;;;;;4918770;29;20052;-86
2021/06/17 09:54:20;;;;;;;3.95;2.13;;;27.90;75.50;;;;;;4918749;29;20055;-84
2021/06/17 09:56:55;;;;;;;7.90;3.00;;;28.00;75.30;;;;;;4918077;29;20490;-85
2021/06/17 09:59:46;;;;;;;5.07;3.10;;;28.10;73.60;;;;;;4918411;29;20072;-85
2021/06/17 10:02:21;;;;;;;8.75;2.53;;;28.10;69.50;;;;;;4917800;29;20095;-85
2021/06/17 10:04:48;;;;;;;4.13;2.40;;;28.20;68.80;;;;;;4917692;29;20482;-85
2021/06/17 10:07:18;;;;;;;3.42;1.90;;;28.20;68.60;;;;;;4917311;29;20052;-86
2021/06/17 10:09:46;;;;;;;4.68;2.28;;;28.20;68.10;;;;;;4917309;29;20066;-85
2021/06/17 10:12:14;;;;;;;4.38;2.17;;;28.30;65.80;;;;;;4917329;29;20135;-86
2021/06/17 10:14:41;;;;;;;5.18;2.47;;;28.30;64.20;;;;;;4917097;29;20479;-86
2021/06/17 10:17:09;;;;;;;4.70;2.45;;;28.40;62.30;;;;;;4917183;29;20062;-85
2021/06/17 10:19:38;;;;;;;4.47;2.60;;;28.40;61.00;;;;;;4917316;29;20396;-83
2021/06/17 10:22:05;;;;;;;3.67;2.05;;;28.50;60.30;;;;;;4917272;29;20083;-85
2021/06/17 10:24:39;;;;;;;3.17;1.75;;;28.50;60.20;;;;;;4917197;29;20140;-86
2021/06/17 10:27:12;;;;;;;3.42;2.08;;;28.60;61.10;;;;;;4925104;29;20048;-81
2021/06/17 10:29:41;;;;;;;5.65;2.60;;;28.60;61.00;;;;;;4927429;29;20138;-80
2021/06/17 10:32:15;;;;;;;3.53;2.10;;;28.70;62.10;;;;;;4926695;29;20044;-78
2021/06/17 10:34:57;;;;;;;;;;;28.80;62.60;;;;;;4926808;29;20047;-80
2021/06/17 10:37:27;;;;;;;3.80;2.15;;;28.90;61.80;;;;;;4922264;29;20014;-79
2021/06/17 10:39:59;;;;;;;4.55;1.85;;;29.00;77.40;;;;;;4921881;29;20055;-79
2021/06/17 10:42:33;;;;;;;4.18;2.10;;;29.00;59.80;;;;;;4924590;29;20372;-80
2021/06/17 10:45:01;;;;;;;3.42;1.90;;;29.10;60.70;;;;;;4925225;29;20048;-79
2021/06/17 10:48:07;;;;;;;3.42;2.00;;;29.20;57.50;;;;;;4924310;29;20043;-80
2021/06/17 10:50:54;;;;;;;3.38;1.90;;;29.20;54.50;;;;;;4923687;29;20043;-79
2021/06/17 10:53:57;;;;;;;3.05;1.60;;;29.20;53.10;;;;;;4922611;29;20539;-79
2021/06/17 10:56:42;;;;;;;3.55;1.65;;;29.20;53.00;;;;;;4922700;29;20138;-79
2021/06/17 10:59:09;;;;;;;3.50;1.83;;;29.20;53.40;;;;;;4922298;29;20510;-80
2021/06/17 11:01:46;;;;;;;2.97;1.67;;;29.20;53.60;;;;;;4923559;29;20047;-79
2021/06/17 11:04:22;;;;;;;3.88;2.10;;;29.20;53.80;;;;;;4921217;29;20076;-79
2021/06/17 11:07:18;;;;;;;3.50;2.10;;;29.20;53.50;;;;;;4932559;29;20097;-79
2021/06/17 11:10:04;;;;;;;4.93;1.83;;;29.20;53.20;;;;;;4933346;29;20055;-79
2021/06/17 11:12:59;;;;;;;3.13;1.80;;;29.30;53.40;;;;;;4927145;29;20130;-79
2021/06/17 11:15:47;;;;;;;4.10;2.50;;;29.30;52.80;;;;;;4934723;29;20052;-79
2021/06/17 11:18:16;;;;;;;3.88;2.15;;;29.40;52.50;;;;;;4933932;29;20055;-79
2021/06/17 11:20:46;;;;;;;4.60;2.00;;;29.40;52.90;;;;;;4933529;29;20130;-79
2021/06/17 11:23:21;;;;;;;3.58;1.83;;;29.40;53.50;;;;;;4934874;29;20044;-79
2021/06/17 11:25:49;;;;;;;4.25;1.90;;;29.50;54.20;;;;;;4941609;29;20131;-79
2021/06/17 11:28:16;;;;;;;4.28;2.22;;;29.50;54.50;;;;;;4921791;29;20063;-79
2021/06/17 11:30:58;;;;;;;3.60;2.30;;;29.60;53.70;;;;;;4923517;29;20501;-79
2021/06/17 11:33:44;;;;;;;3.58;2.08;;;29.60;53.40;;;;;;4924320;29;20104;-79
2021/06/17 11:36:19;;;;;;;3.92;2.20;;;29.70;53.40;;;;;;4928019;29;20059;-78
2021/06/17 11:38:51;;;;;;;3.70;2.63;;;29.70;53.10;;;;;;4922602;29;20505;-79
2021/06/17 11:41:22;;;;;;;5.07;2.28;;;29.70;51.50;;;;;;4925318;29;20058;-78
2021/06/17 11:43:54;;;;;;;4.07;2.00;;;29.80;51.70;;;;;;4923794;29;20048;-77
2021/06/17 11:46:28;;;;;;;4.10;2.17;;;29.80;51.50;;;;;;4925905;29;20064;-77
2021/06/17 11:48:59;;;;;;;3.63;2.13;;;29.80;52.40;;;;;;4926916;29;20051;-81
2021/06/17 11:51:27;;;;;;;4.22;2.03;;;29.90;52.60;;;;;;4930920;29;20525;-78
2021/06/17 11:53:57;;;;;;;3.38;1.70;;;29.90;52.60;;;;;;4923761;29;20135;-81
2021/06/17 11:56:30;;;;;;;3.25;1.75;;;29.90;52.70;;;;;;4920477;29;20469;-84
2021/06/17 11:59:15;;;;;;;2.70;1.80;;;30.00;60.70;;;;;;4922003;29;20139;-86
2021/06/17 12:02:06;;;;;;;3.00;1.60;;;30.20;61.90;;;;;;4922971;29;20695;-86
2021/06/17 12:04:54;;;;;;;3.38;1.60;;;30.20;63.30;;;;;;4931356;29;20159;-86
2021/06/17 12:07:28;;;;;;;3.15;1.90;;;30.20;51.50;;;;;;4939789;29;20087;-87
2021/06/17 12:10:16;;;;;;;3.20;1.88;;;30.20;51.40;;;;;;4939092;29;20048;-87
2021/06/17 12:12:48;;;;;;;2.72;1.70;;;30.30;51.70;;;;;;4938637;29;20048;-87
2021/06/17 12:15:22;;;;;;;2.60;1.58;;;30.40;51.30;;;;;;4936413;29;20417;-86
2021/06/17 12:17:52;;;;;;;3.45;1.70;;;30.50;50.70;;;;;;4936866;29;20126;-84
2021/06/17 12:20:25;;;;;;;3.17;1.98;;;30.60;50.50;;;;;;4917825;29;20487;-86
2021/06/17 12:23:08;;;;;;;3.70;1.40;;;30.70;49.90;;;;;;4934694;29;20470;-86
2021/06/17 12:25:39;;;;;;;2.88;1.67;;;30.90;54.50;;;;;;4931008;29;20048;-86
2021/06/17 12:28:08;;;;;;;2.90;1.52;;;30.90;64.50;;;;;;4938158;29;20123;-87
2021/06/17 12:30:38;;;;;;;3.55;1.50;;;;;;;;;;4936033;29;20150;-87
2021/06/17 12:33:13;;;;;;;2.95;1.40;;;31.00;48.70;;;;;;4931420;29;20131;-87
2021/06/17 12:35:48;;;;;;;2.70;1.40;;;31.10;49.20;;;;;;4930521;29;20138;-86
2021/06/17 12:38:28;;;;;;;3.42;1.60;;;31.20;49.00;;;;;;4923017;29;20131;-85
2021/06/17 12:41:13;;;;;;;2.80;1.30;;;31.40;49.60;;;;;;4920130;29;20498;-86
2021/06/17 12:43:45;;;;;;;2.30;1.30;;;;;;;;;;4928398;29;20442;-86
2021/06/17 12:46:13;;;;;;;3.05;1.73;;;;;;;;;;4917455;29;20053;-85
2021/06/17 12:48:59;;;;;;;2.80;1.70;;;32.00;76.50;;;;;;4935290;29;20048;-86
2021/06/17 12:54:25;;;;;;;2.83;1.42;;;32.00;76.70;;;;;;4935639;29;20217;-85
2021/06/17 12:56:55;;;;;;;2.58;1.60;;;32.00;47.60;;;;;;4938927;29;20058;-87
2021/06/17 12:59:39;;;;;;;2.60;1.55;;;32.10;47.30;;;;;;4936242;29;20862;-82
2021/06/17 13:02:07;;;;;;;3.88;1.90;;;32.80;51.50;;;;;;4915415;29;20040;-80
2021/06/17 13:04:34;;;;;;;3.58;1.70;;;32.30;47.00;;;;;;4935706;29;20047;-86
2021/06/17 13:07:09;;;;;;;3.75;1.70;;;32.30;46.70;;;;;;4919480;29;20189;-84
2021/06/17 13:09:36;;;;;;;2.92;1.40;;;32.40;46.60;;;;;;4928837;29;20414;-85
2021/06/17 13:12:28;;;;;;;3.42;1.38;;;32.50;46.30;;;;;;4935962;29;20083;-84